Share

Strong City, KS

Emporia Municipal (KEMP) Elev 1207 ft | 38.33 °N, 96.19 °W | Change Station

Current weather conditions updated 52 minutes ago

Clear
Clear
65 °F
Feels Like 65 °F
N
12
Wind Variable Wind from SE
Sunrise 6:44 AM
Sunset 8:06 PM
Moon Waning Gibbous

Tomorrow is forecast to be nearly the same temperature as today. Rain developing late tomorrow night.

Pressure 30.04 in
Visibility 9.0 miles
Clouds Clear
Dew Point 45 °F
Humidity 48%
Rainfall 0.00 in
Snow Depth Not available.
UV 0 out of 16
Pollen 11.30 out of 12
Air Quality Not available.
Flu Activity No Activity
METAR KEMP 200153Z AUTO 14010KT 9SM CLR 18/07 A3004 RMK AO2 SLP170 T01830072

More Conditions Fewer Conditions

Pressure 30.04 in
Visibility 9.0 miles
Clouds Clear
Dew Point 45 °F
Humidity 48%
Rainfall 0.00 in
Snow Depth Not available.
UV 0 out of 16
Pollen 11.30 out of 12
Air Quality Not available.
Flu Activity No Activity
METAR KEMP 200153Z AUTO 14010KT 9SM CLR 18/07 A3004 RMK AO2 SLP170 T01830072

More Conditions Fewer Conditions

10-Day Weather Forecast

Almanac

Astronomy

Apr. 19, 2014 Rise Set
Actual Time 6:44 AM CDT 8:06 PM CDT
Civil Twilight 6:17 AM CDT 8:34 PM CDT
Nautical Twilight 5:43 AM CDT 9:07 PM CDT
Astronomical Twilight 5:09 AM CDT 9:42 PM CDT
Moon No Moon Rise 10:06 AM CDT (4/19)
Length of Visible Light 14h 17m
Length of Day
13h 21m
Tomorrow will be 2m 19s longer.
Waning Gibbous, 74% of the Moon is Illuminated
Today
Waning Gibbous
Apr 22
Last Quarter
Apr 29
New
May 6
First Quarter
May 14
Full

Today's Extremes

State Highs State Lows

Community

  • Cherry Blossoms
    Cherry Blossoms
  • White-Crowned Sparrow
    White-Crowned Sparrow
  • New Day
    New Day
  • Happy Easter!
    Happy Easter!
  • poppy bloom near Mazar-e-Sharif
    poppy bloom near Mazar-e-Sharif

WunderPhotos

Upload Photos

1,703,054 photos uploaded!

WunderBlogs® & News

By Dr. Jeff Masters
Director of Meteorology, Weather Underground
By Kari Strenfel
Meteorologist, Weather Underground
By Christopher C. Burt
Weather Historian, Weather Underground
April 19, 2014
April 19, 2014
April 19, 2014

Nearby

Snow Depth

Station Depth Elevation
No new snow has been reported.

Coastal Water Temperatures

Place Temperature
No Stations Reporting

Earthquake Activity

City Distance Mag. Time & Date
No recent earthquake activity has been reported nearby.
Minimum magnitude displayed is 2.5.

Nearby Weather Stations

Station Location Temp. Dew Point Humidity Wind Precip. Elev Updated Type
RAWS TALLGRASS PRAIRIE KS, Strong City, KS 70 °F 43 °F 38% SSE  at  8 mph 0.00 in / hr 1230 ft 8:30 PM CDT MADIS
East Emporia Kansas, Emporia, KS 64.9 °F 48 °F 55% South  at  5.3 mph - / hr 1106 ft 9:36 PM CDT Normal

Show More Stations Show Fewer Stations

What do you think?

We're not finished. Please let us know what you like, what you don't like, and what you are still missing.